createdAt,value
2023-05-02T00:03:16.649Z,8.79
2023-05-02T00:08:18.558Z,8.93
2023-05-02T00:13:20.597Z,9.08
2023-05-02T00:18:24.132Z,9.22
2023-05-02T00:23:25.908Z,9.35
2023-05-02T00:28:27.659Z,9.46
2023-05-02T00:33:29.449Z,9.55
2023-05-02T00:38:31.472Z,9.63
2023-05-02T00:43:33.421Z,9.66
2023-05-02T00:48:36.249Z,9.72
2023-05-02T00:53:38.045Z,9.78
2023-05-02T00:58:41.226Z,9.88
2023-05-02T01:03:45.840Z,10.03
2023-05-02T01:09:07.300Z,10.24
2023-05-02T01:14:11.691Z,10.49
2023-05-02T01:19:33.338Z,10.70
2023-05-02T01:24:43.096Z,10.91
2023-05-02T01:29:46.282Z,11.05
2023-05-02T01:34:49.940Z,11.17
2023-05-02T01:39:53.597Z,11.28
2023-05-02T01:44:56.997Z,11.41
2023-05-02T01:50:00.526Z,11.50
2023-05-02T01:55:05.131Z,11.58
2023-05-02T02:00:09.877Z,11.63
2023-05-02T02:05:16.149Z,11.68
2023-05-02T02:10:18.539Z,11.73
2023-05-02T02:15:27.457Z,11.78
2023-05-02T02:20:30.353Z,11.80
2023-05-02T02:25:33.911Z,11.82
2023-05-02T02:30:35.745Z,11.81
2023-05-02T02:35:50.556Z,11.78
2023-05-02T02:41:02.667Z,11.76
2023-05-02T02:46:32.607Z,11.70
2023-05-02T02:51:53.403Z,11.65
2023-05-02T02:57:16.658Z,11.60
2023-05-02T03:02:23.062Z,11.56
2023-05-02T03:07:28.819Z,11.53
2023-05-02T03:12:32.030Z,11.53
2023-05-02T03:17:34.025Z,11.51
2023-05-02T03:22:35.942Z,11.48
2023-05-02T03:27:37.995Z,11.47
2023-05-02T03:32:41.024Z,11.42
2023-05-02T03:37:43.436Z,11.36
2023-05-02T03:42:45.268Z,11.32
2023-05-02T03:47:54.339Z,11.32
2023-05-02T03:52:57.358Z,11.33
2023-05-02T03:58:03.609Z,11.35
2023-05-02T04:07:18.091Z,11.44
2023-05-02T04:12:21.536Z,11.46
2023-05-02T04:17:25.937Z,11.53
2023-05-02T04:22:27.982Z,11.65
2023-05-02T04:27:34.432Z,11.78
2023-05-02T04:32:37.993Z,11.95
2023-05-02T04:37:40.652Z,12.15
2023-05-02T04:42:42.908Z,12.41
2023-05-02T04:47:51.831Z,12.72
2023-05-02T04:52:54.191Z,13.03
2023-05-02T04:57:56.545Z,13.29
2023-05-02T05:03:01.572Z,13.58
2023-05-02T05:08:04.425Z,13.91
2023-05-02T05:13:09.294Z,14.24
2023-05-02T05:18:11.928Z,14.47
2023-05-02T05:23:13.895Z,14.60
2023-05-02T05:28:15.788Z,14.77
2023-05-02T05:33:18.081Z,15.00
2023-05-02T05:38:20.084Z,15.34
2023-05-02T05:43:23.414Z,15.75
2023-05-02T05:48:25.935Z,16.17
2023-05-02T05:53:27.934Z,16.50
2023-05-02T05:58:30.592Z,16.82
2023-05-02T06:03:33.220Z,17.13
2023-05-02T06:08:35.764Z,17.52
2023-05-02T06:13:39.685Z,17.87
2023-05-02T06:18:42.532Z,18.11
2023-05-02T06:23:44.400Z,18.31
2023-05-02T06:28:46.237Z,18.46
2023-05-02T06:33:47.951Z,18.50
2023-05-02T06:38:49.609Z,18.67
2023-05-02T06:43:51.903Z,18.99
2023-05-02T06:48:53.840Z,19.05
2023-05-02T06:53:55.556Z,18.85
2023-05-02T06:58:57.261Z,18.89
2023-05-02T07:03:59.060Z,19.09
2023-05-02T07:09:00.942Z,19.08
2023-05-02T07:14:02.692Z,19.47
2023-05-02T07:19:06.840Z,19.71
2023-05-02T07:24:08.620Z,19.81
2023-05-02T07:29:10.330Z,19.96
2023-05-02T07:34:12.091Z,19.93
2023-05-02T07:39:13.767Z,20.29
2023-05-02T07:44:15.494Z,20.80
2023-05-02T07:49:17.166Z,21.21
2023-05-02T07:54:20.439Z,21.68
2023-05-02T07:59:22.105Z,21.78
2023-05-02T08:04:24.012Z,21.93
2023-05-02T08:09:26.114Z,21.87
2023-05-02T08:14:27.838Z,21.67
2023-05-02T08:19:29.689Z,21.74
2023-05-02T08:24:31.425Z,22.10
2023-05-02T08:29:33.431Z,22.14
2023-05-02T08:34:35.478Z,22.21
2023-05-02T08:39:37.134Z,22.45
2023-05-02T08:44:38.996Z,22.77
2023-05-02T08:49:42.341Z,23.10
2023-05-02T08:54:45.033Z,23.26
2023-05-02T08:59:46.846Z,23.30
2023-05-02T09:04:54.830Z,22.43
2023-05-02T09:09:56.583Z,22.04
2023-05-02T09:15:16.980Z,21.44
2023-05-02T09:20:21.131Z,21.19
2023-05-02T09:25:22.885Z,21.25
2023-05-02T09:30:26.268Z,21.24
2023-05-02T09:35:28.103Z,21.02
2023-05-02T09:40:30.712Z,20.95
2023-05-02T09:45:32.655Z,20.92
2023-05-02T09:50:37.021Z,20.83
2023-05-02T09:55:40.124Z,21.68
2023-05-02T10:00:45.349Z,22.12
2023-05-02T10:05:47.412Z,22.52
2023-05-02T10:10:57.324Z,22.41
2023-05-02T10:16:10.188Z,22.36
2023-05-02T10:21:16.047Z,22.42
2023-05-02T10:26:17.798Z,22.44
2023-05-02T10:31:19.537Z,22.52
2023-05-02T10:36:22.900Z,22.50
2023-05-02T10:41:27.644Z,22.71
2023-05-02T10:46:30.295Z,22.68
2023-05-02T10:51:33.186Z,22.21
2023-05-02T10:56:35.074Z,21.71
2023-05-02T11:01:39.434Z,21.61
2023-05-02T11:06:59.451Z,21.96
2023-05-02T11:12:02.191Z,22.11
2023-05-02T11:17:06.795Z,21.93
2023-05-02T11:22:34.088Z,21.90
2023-05-02T11:27:38.584Z,21.72
2023-05-02T11:32:50.101Z,21.24
2023-05-02T11:37:56.278Z,20.70
2023-05-02T11:43:00.185Z,20.48
2023-05-02T11:48:04.684Z,20.23
2023-05-02T11:53:11.947Z,20.27
2023-05-02T11:58:18.627Z,20.40
2023-05-02T12:03:28.758Z,20.61
2023-05-02T12:08:31.369Z,20.62
2023-05-02T12:13:33.321Z,20.66
2023-05-02T12:18:36.203Z,20.96
2023-05-02T12:23:39.994Z,20.77
2023-05-02T12:28:49.675Z,20.27
2023-05-02T12:33:52.763Z,19.80
2023-05-02T12:38:59.261Z,19.73
2023-05-02T12:44:01.496Z,19.75
2023-05-02T12:49:11.893Z,19.73
2023-05-02T12:54:20.944Z,19.78
2023-05-02T12:59:30.600Z,20.10
2023-05-02T13:04:36.660Z,20.37
2023-05-02T13:09:38.840Z,20.45
2023-05-02T13:14:40.720Z,20.66
2023-05-02T13:20:01.011Z,20.83
2023-05-02T13:25:07.701Z,20.60
2023-05-02T13:30:10.318Z,20.32
2023-05-02T13:35:15.879Z,20.49
2023-05-02T13:40:17.713Z,20.70
2023-05-02T13:45:19.540Z,20.61
2023-05-02T13:50:21.415Z,20.14
2023-05-02T13:55:23.224Z,19.86
2023-05-02T14:00:25.310Z,20.02
2023-05-02T14:05:27.676Z,20.06
2023-05-02T14:10:29.355Z,19.91
2023-05-02T14:15:31.793Z,19.47
2023-05-02T14:20:33.516Z,19.23
2023-05-02T14:25:36.495Z,18.86
2023-05-02T14:30:38.230Z,18.51
2023-05-02T14:35:40.049Z,18.20
2023-05-02T14:40:41.792Z,17.95
2023-05-02T14:45:43.506Z,17.72
2023-05-02T14:50:45.376Z,17.60
2023-05-02T14:55:47.074Z,17.45
2023-05-02T15:00:48.856Z,17.19
2023-05-02T15:05:50.865Z,16.75
2023-05-02T15:10:52.671Z,16.54
2023-05-02T15:15:55.797Z,16.43
2023-05-02T15:20:57.650Z,16.18
2023-05-02T15:25:59.316Z,15.83
2023-05-02T15:31:01.007Z,15.60
2023-05-02T15:36:02.717Z,15.43
2023-05-02T15:41:04.790Z,15.26
2023-05-02T15:46:06.619Z,15.10
2023-05-02T15:51:10.790Z,14.90
2023-05-02T15:56:12.822Z,14.74
2023-05-02T16:01:14.753Z,14.49
2023-05-02T16:06:17.563Z,14.18
2023-05-02T16:11:19.301Z,13.93
2023-05-02T16:16:21.059Z,13.86
2023-05-02T16:21:22.746Z,13.77
2023-05-02T16:26:24.471Z,13.61
2023-05-02T16:31:26.460Z,13.45
2023-05-02T16:36:31.766Z,13.26
2023-05-02T16:41:35.158Z,13.14
2023-05-02T16:46:37.576Z,13.08
2023-05-02T16:51:39.482Z,13.03
2023-05-02T16:56:42.526Z,13.00
2023-05-02T17:01:44.752Z,12.90
2023-05-02T17:06:47.746Z,12.85
2023-05-02T17:11:50.294Z,12.77
2023-05-02T17:16:52.066Z,12.65
2023-05-02T17:21:54.645Z,12.52
2023-05-02T17:26:56.880Z,12.45
2023-05-02T17:32:00.724Z,12.44
2023-05-02T17:37:02.465Z,12.40
2023-05-02T17:42:04.352Z,12.34
2023-05-02T17:47:06.347Z,12.32
2023-05-02T17:52:08.044Z,12.28
2023-05-02T17:57:10.163Z,12.24
2023-05-02T18:02:12.089Z,12.21
2023-05-02T18:07:13.986Z,12.19
2023-05-02T18:12:15.749Z,12.17
2023-05-02T18:17:20.413Z,12.16
2023-05-02T18:22:22.270Z,12.12
2023-05-02T18:27:24.110Z,12.06
2023-05-02T18:32:26.209Z,12.02
2023-05-02T18:37:31.678Z,11.97
2023-05-02T18:42:33.600Z,11.96
2023-05-02T18:47:36.602Z,11.95
2023-05-02T18:52:38.578Z,11.93
2023-05-02T18:57:43.628Z,11.89
2023-05-02T19:02:45.522Z,11.87
2023-05-02T19:07:47.747Z,11.84
2023-05-02T19:12:49.547Z,11.78
2023-05-02T19:17:51.323Z,11.74
2023-05-02T19:23:02.956Z,11.73
2023-05-02T19:28:19.366Z,11.72
2023-05-02T19:33:21.112Z,11.72
2023-05-02T19:38:23.094Z,11.72
2023-05-02T19:43:26.077Z,11.72
2023-05-02T19:48:28.438Z,11.68
2023-05-02T19:53:35.286Z,11.71
2023-05-02T19:58:37.258Z,11.74
2023-05-02T20:03:39.176Z,11.70
2023-05-02T20:08:41.275Z,11.62
2023-05-02T20:13:43.139Z,11.58
2023-05-02T20:18:44.790Z,11.57
2023-05-02T20:23:46.585Z,11.49
2023-05-02T20:28:48.377Z,11.36
2023-05-02T20:33:50.585Z,11.30
2023-05-02T20:38:53.018Z,11.25
2023-05-02T20:43:55.489Z,11.24
2023-05-02T20:48:59.352Z,11.22
2023-05-02T20:54:01.383Z,11.22
2023-05-02T20:59:03.144Z,11.20
2023-05-02T21:04:05.495Z,11.17
2023-05-02T21:09:09.446Z,11.15
2023-05-02T21:14:13.251Z,11.13
2023-05-02T21:19:14.980Z,11.12
2023-05-02T21:24:16.710Z,11.13
2023-05-02T21:29:18.827Z,11.11
2023-05-02T21:34:20.745Z,11.09
2023-05-02T21:39:26.535Z,11.01
2023-05-02T21:44:28.938Z,10.96
2023-05-02T21:49:37.884Z,10.96
2023-05-02T21:54:39.868Z,10.93
2023-05-02T21:59:41.881Z,10.96
2023-05-02T22:04:47.282Z,11.01
2023-05-02T22:09:48.945Z,11.01
2023-05-02T22:14:51.114Z,10.99
2023-05-02T22:19:52.950Z,10.99
2023-05-02T22:24:54.813Z,11.00
2023-05-02T22:30:09.410Z,10.98
2023-05-02T22:35:11.222Z,10.96
2023-05-02T22:40:13.241Z,10.96
2023-05-02T22:45:14.939Z,10.97
2023-05-02T22:50:16.760Z,11.01
2023-05-02T22:55:18.563Z,11.02
2023-05-02T23:00:22.546Z,11.02
2023-05-02T23:05:24.479Z,11.04
2023-05-02T23:10:31.602Z,11.05
2023-05-02T23:15:54.477Z,11.03
2023-05-02T23:20:56.441Z,11.02
2023-05-02T23:25:58.466Z,10.98
2023-05-02T23:31:00.276Z,10.91
2023-05-02T23:36:02.505Z,10.83
2023-05-02T23:41:04.867Z,10.78
2023-05-02T23:46:09.526Z,10.76
2023-05-02T23:51:12.602Z,10.74
2023-05-02T23:56:14.372Z,10.73
